Time;durP1;ratioP1;P1;durP2;ratioP2;P2;SDS_P1;SDS_P2;PMS_P1;PMS_P2;Temp;Humidity;BMP_temperature;BMP_pressure;BME280_temperature;BME280_humidity;BME280_pressure;Samples;Min_cycle;Max_cycle;Signal;HPM_P1;HPM_P2
2023/10/30 00:01:24;;;;;;;8.27;1.48;;;;;;;13.76;67.29;98122.16;4993811;28;20101;-77
2023/10/30 00:03:52;;;;;;;5.50;1.50;;;;;;;13.75;67.24;98123.94;4993739;28;20058;-76
2023/10/30 00:06:18;;;;;;;5.63;1.30;;;;;;;13.74;67.39;98116.16;4993890;28;20053;-75
2023/10/30 00:08:45;;;;;;;11.23;1.75;;;;;;;13.73;67.52;98118.00;4993600;28;20054;-74
2023/10/30 00:11:11;;;;;;;7.70;1.50;;;;;;;13.74;67.46;98129.38;4993639;28;20077;-75
2023/10/30 00:13:38;;;;;;;10.90;1.75;;;;;;;13.72;67.43;98126.88;4992394;28;20054;-80
2023/10/30 00:16:05;;;;;;;12.25;2.00;;;;;;;13.73;67.46;98130.38;4993275;28;20050;-77
2023/10/30 00:18:34;;;;;;;5.07;1.70;;;;;;;13.73;67.51;98119.78;4993416;28;20134;-77
2023/10/30 00:21:00;;;;;;;5.78;1.40;;;;;;;13.73;67.54;98135.66;4992209;28;20158;-75
2023/10/30 00:23:28;;;;;;;7.68;1.55;;;;;;;13.74;67.46;98132.03;4992066;28;20137;-84
2023/10/30 00:25:55;;;;;;;3.95;1.33;;;;;;;13.72;67.66;98134.81;4993223;28;20109;-75
2023/10/30 00:28:21;;;;;;;7.85;1.60;;;;;;;13.72;67.66;98128.72;4993370;28;20054;-76
2023/10/30 00:30:48;;;;;;;11.48;1.90;;;;;;;13.74;67.75;98132.03;4993024;28;20038;-76
2023/10/30 00:33:15;;;;;;;7.75;2.05;;;;;;;13.74;67.69;98135.50;4993186;28;20052;-78
2023/10/30 00:35:43;;;;;;;11.40;1.83;;;;;;;13.73;67.73;98139.16;4993054;28;20071;-74
2023/10/30 00:38:09;;;;;;;5.07;1.45;;;;;;;13.75;67.63;98141.66;4993232;28;20594;-78
2023/10/30 00:40:37;;;;;;;8.43;1.90;;;;;;;13.75;67.68;98149.59;4992783;28;20562;-73
2023/10/30 00:43:04;;;;;;;7.50;1.60;;;;;;;13.75;67.68;98150.41;4991770;28;20108;-73
2023/10/30 00:45:31;;;;;;;8.93;2.03;;;;;;;13.76;67.64;98156.53;4992783;28;20475;-74
2023/10/30 00:47:58;;;;;;;12.73;1.83;;;;;;;13.77;67.58;98164.31;4992759;28;20050;-79
2023/10/30 00:50:25;;;;;;;11.55;2.35;;;;;;;13.77;67.57;98166.97;4992825;28;20074;-78
2023/10/30 00:52:52;;;;;;;6.03;1.80;;;;;;;13.77;67.93;98179.34;4992854;28;20097;-76
2023/10/30 00:55:18;;;;;;;6.85;1.67;;;;;;;13.81;67.92;98186.00;4991763;28;20085;-76
2023/10/30 00:57:45;;;;;;;7.85;1.80;;;;;;;13.81;67.81;98189.50;4991169;28;20078;-80
2023/10/30 01:00:12;;;;;;;7.30;1.88;;;;;;;13.84;67.94;98190.16;4986282;28;20046;-81
2023/10/30 01:02:39;;;;;;;7.68;1.88;;;;;;;13.87;67.90;98188.03;4989172;28;20052;-73
2023/10/30 01:05:08;;;;;;;10.25;1.73;;;;;;;13.89;68.13;98191.38;4992463;28;20054;-76
2023/10/30 01:07:35;;;;;;;7.03;1.38;;;;;;;13.92;67.99;98196.38;4992339;28;20054;-75
2023/10/30 01:10:02;;;;;;;10.13;1.75;;;;;;;13.96;67.94;98202.22;4980250;28;20101;-76
2023/10/30 01:12:28;;;;;;;7.55;1.38;;;;;;;13.99;67.81;98201.91;4971611;28;20054;-74
2023/10/30 01:14:55;;;;;;;6.78;1.70;;;;;;;14.02;67.70;98206.91;4973124;28;20049;-77
2023/10/30 01:17:22;;;;;;;5.68;1.60;;;;;;;14.04;67.54;98212.03;4972862;28;20051;-77
2023/10/30 01:19:48;;;;;;;5.95;1.75;;;;;;;14.05;67.63;98206.59;4971511;28;20057;-81
2023/10/30 01:22:15;;;;;;;9.05;1.80;;;;;;;14.07;67.62;98202.00;4972679;28;20052;-78
2023/10/30 01:24:42;;;;;;;9.93;1.90;;;;;;;14.09;67.56;98204.47;4972708;28;20042;-77
2023/10/30 01:27:08;;;;;;;7.88;1.60;;;;;;;14.10;67.48;98200.88;4972447;28;20555;-78
2023/10/30 01:29:35;;;;;;;8.93;2.22;;;;;;;14.10;67.43;98206.19;4972600;28;20082;-75
2023/10/30 01:32:01;;;;;;;10.23;2.40;;;;;;;14.11;67.26;98207.84;4972717;28;20042;-76
2023/10/30 01:34:28;;;;;;;9.88;1.98;;;;;;;14.11;67.31;98197.25;4972554;28;20043;-77
2023/10/30 01:36:55;;;;;;;8.18;1.95;;;;;;;14.11;67.23;98199.91;4972315;28;20564;-74
2023/10/30 01:39:22;;;;;;;11.02;1.83;;;;;;;14.11;67.23;98199.91;4970880;28;20538;-77
2023/10/30 01:41:48;;;;;;;6.90;1.75;;;;;;;14.11;67.10;98201.69;4972720;28;20056;-74
2023/10/30 01:44:15;;;;;;;9.57;1.92;;;;;;;14.09;66.62;98196.53;4971308;28;20439;-76
2023/10/30 01:46:41;;;;;;;10.63;1.90;;;;;;;14.08;66.83;98200.19;4972285;28;20062;-76
2023/10/30 01:49:08;;;;;;;12.40;2.15;;;;;;;14.06;66.81;98199.50;4972289;28;20075;-78
2023/10/30 01:51:34;;;;;;;10.80;2.10;;;;;;;14.03;66.71;98200.66;4971014;28;20111;-75
2023/10/30 01:54:02;;;;;;;7.35;1.73;;;;;;;14.02;66.96;98208.72;4972197;28;20043;-76
2023/10/30 01:56:28;;;;;;;7.13;1.75;;;;;;;14.01;66.84;98217.63;4972255;28;20134;-78
2023/10/30 01:58:55;;;;;;;11.23;2.22;;;;;;;13.98;66.84;98220.59;4970774;28;20145;-78
2023/10/30 02:01:22;;;;;;;8.18;1.92;;;;;;;13.96;66.89;98217.25;4972439;28;20082;-76
2023/10/30 02:03:51;;;;;;;7.32;1.65;;;;;;;13.93;66.90;98213.91;4971109;28;20050;-77
2023/10/30 02:06:17;;;;;;;7.18;1.90;;;;;;;13.92;66.97;98216.72;4971997;28;20054;-77
2023/10/30 02:08:44;;;;;;;9.15;1.77;;;;;;;13.89;66.91;98220.47;4970704;28;20500;-80
2023/10/30 02:11:11;;;;;;;5.68;1.55;;;;;;;13.86;66.78;98220.78;4972168;28;20047;-79
2023/10/30 02:13:38;;;;;;;9.98;2.13;;;;;;;13.85;66.85;98221.75;4972071;28;20051;-75
2023/10/30 02:16:05;;;;;;;6.75;1.95;;;;;;;13.83;67.01;98215.75;4970826;28;20089;-77
2023/10/30 02:18:32;;;;;;;6.85;1.58;;;;;;;13.80;67.11;98222.19;4970946;28;20109;-76
2023/10/30 02:20:58;;;;;;;10.18;1.77;;;;;;;13.79;67.08;98224.97;4971742;28;20117;-79
2023/10/30 02:23:25;;;;;;;9.88;2.25;;;;;;;13.77;67.03;98221.66;4972043;28;20042;-75
2023/10/30 02:25:51;;;;;;;7.65;1.67;;;;;;;13.74;67.07;98225.44;4972127;28;20043;-73
2023/10/30 02:28:18;;;;;;;9.52;1.88;;;;;;;13.74;67.27;98216.66;4971984;28;20559;-74
2023/10/30 02:30:44;;;;;;;9.13;2.13;;;;;;;13.73;67.12;98222.91;4971748;28;20085;-76
2023/10/30 02:33:11;;;;;;;10.10;2.03;;;;;;;13.70;67.30;98231.13;4971873;28;20043;-76
2023/10/30 02:35:38;;;;;;;4.93;1.38;;;;;;;13.70;67.27;98223.19;4972134;28;20077;-74
2023/10/30 02:38:04;;;;;;;7.68;1.50;;;;;;;13.68;67.24;98226.00;4970702;28;20637;-78
2023/10/30 02:40:31;;;;;;;5.78;1.70;;;;;;;13.68;67.15;98221.53;4971864;28;20054;-78
2023/10/30 02:42:58;;;;;;;10.30;2.03;;;;;;;13.69;67.21;98219.75;4971927;28;20098;-74
2023/10/30 02:45:24;;;;;;;6.32;1.50;;;;;;;13.68;67.22;98221.53;4970542;28;20053;-77
2023/10/30 02:47:51;;;;;;;7.65;1.55;;;;;;;13.67;67.36;98225.19;4970524;28;20637;-75
2023/10/30 02:50:17;;;;;;;7.38;1.75;;;;;;;13.68;67.44;98233.91;4971516;28;20129;-75
2023/10/30 02:52:44;;;;;;;7.38;1.63;;;;;;;13.68;67.38;98234.78;4971646;28;20467;-75
2023/10/30 02:55:11;;;;;;;5.65;1.70;;;;;;;13.68;67.38;98229.47;4970615;28;20055;-77
2023/10/30 02:57:37;;;;;;;11.60;2.28;;;;;;;13.68;67.45;98228.63;4972036;28;20047;-78
2023/10/30 03:00:05;;;;;;;9.77;1.73;;;;;;;13.68;67.54;98226.00;4971576;28;20081;-77
2023/10/30 03:02:33;;;;;;;7.97;1.73;;;;;;;13.70;67.47;98226.69;4970466;28;20436;-77
2023/10/30 03:05:00;;;;;;;6.75;1.80;;;;;;;13.71;67.67;98235.47;4970580;28;20069;-76
2023/10/30 03:07:26;;;;;;;7.13;1.65;;;;;;;13.71;67.73;98233.63;4971675;28;20050;-77
2023/10/30 03:09:53;;;;;;;9.23;2.03;;;;;;;13.73;67.61;98236.13;4971437;28;20101;-78
2023/10/30 03:12:20;;;;;;;10.25;1.67;;;;;;;13.74;67.68;98228.06;4971592;28;20495;-75
2023/10/30 03:14:47;;;;;;;5.32;1.55;;;;;;;13.74;67.44;98230.72;4970525;28;20058;-79
2023/10/30 03:17:14;;;;;;;6.35;1.58;;;;;;;13.76;67.39;98230.56;4970163;28;20462;-76
2023/10/30 03:19:40;;;;;;;8.80;1.88;;;;;;;13.75;67.27;98228.91;4973066;28;20138;-75
2023/10/30 03:22:07;;;;;;;9.93;2.30;;;;;;;13.75;67.23;98231.56;4975173;28;20500;-75
2023/10/30 03:24:34;;;;;;;9.52;1.55;;;;;;;13.74;67.20;98237.81;4974977;28;20051;-78
2023/10/30 03:27:01;;;;;;;8.57;1.60;;;;;;;13.72;67.15;98240.59;4973741;28;20050;-76
2023/10/30 03:29:27;;;;;;;10.23;2.00;;;;;;;13.70;67.17;98236.44;4973585;28;20050;-77
2023/10/30 03:31:55;;;;;;;5.80;1.77;;;;;;;13.69;67.29;98235.59;4974639;28;20492;-81
2023/10/30 03:34:22;;;;;;;9.35;1.83;;;;;;;13.68;67.42;98233.91;4974967;28;20046;-75
2023/10/30 03:36:48;;;;;;;6.70;1.50;;;;;;;13.67;67.42;98232.25;4974810;28;20046;-77
2023/10/30 03:39:15;;;;;;;7.32;1.65;;;;;;;13.66;67.34;98238.53;4974733;28;20431;-74
2023/10/30 03:41:44;;;;;;;8.45;1.52;;;;;;;13.65;67.25;98235.06;4974664;28;20053;-76
2023/10/30 03:44:11;;;;;;;6.53;1.15;;;;;;;13.63;67.27;98239.66;4973435;28;20460;-76
2023/10/30 03:46:38;;;;;;;6.80;1.77;;;;;;;13.62;67.07;98240.66;4973251;28;20054;-76
2023/10/30 03:49:04;;;;;;;5.57;1.38;;;;;;;13.59;67.37;98234.78;4974458;28;20101;-76
2023/10/30 03:51:31;;;;;;;10.15;1.85;;;;;;;13.59;67.13;98242.72;4973126;28;20546;-75
2023/10/30 03:53:58;;;;;;;9.02;1.65;;;;;;;13.55;67.25;98232.47;4973253;28;20484;-76
2023/10/30 03:56:24;;;;;;;4.60;1.63;;;;;;;13.55;67.24;98239.56;4974196;28;20113;-81
2023/10/30 03:58:51;;;;;;;7.65;1.60;;;;;;;13.52;67.37;98238.03;4974189;28;20125;-76
2023/10/30 04:01:17;;;;;;;5.30;1.55;;;;;;;13.51;67.21;98244.31;4974291;28;20082;-75
2023/10/30 04:03:46;;;;;;;7.20;1.95;;;;;;;13.49;67.27;98253.34;4974398;28;20043;-80
2023/10/30 04:06:13;;;;;;;6.50;1.90;;;;;;;13.45;67.25;98255.41;4974149;28;20047;-76
2023/10/30 04:08:39;;;;;;;6.40;1.55;;;;;;;13.43;67.30;98252.09;4974202;28;20146;-73
2023/10/30 04:11:13;;;;;;;5.38;1.63;;;;;;;13.38;67.49;98249.84;4972673;28;20050;-75
2023/10/30 04:13:39;;;;;;;6.30;1.67;;;;;;;13.37;67.46;98253.47;4974223;28;20160;-76
2023/10/30 04:16:10;;;;;;;7.80;1.95;;;;;;;13.34;67.85;98251.13;4973857;28;20043;-73
2023/10/30 04:18:37;;;;;;;8.18;1.75;;;;;;;13.33;67.72;98253.91;4973883;28;20109;-75
2023/10/30 04:21:05;;;;;;;3.92;1.40;;;;;;;13.31;67.78;98254.06;4972639;28;20058;-73
2023/10/30 04:23:32;;;;;;;6.88;1.50;;;;;;;13.29;67.62;98254.19;4972684;28;20054;-76
2023/10/30 04:25:59;;;;;;;10.68;1.67;;;;;;;13.28;68.03;98256.97;4974049;28;20440;-75
2023/10/30 04:28:25;;;;;;;6.05;1.83;;;;;;;13.27;67.90;98268.53;4973761;28;20113;-78
2023/10/30 04:30:52;;;;;;;9.70;1.80;;;;;;;13.26;67.85;98264.19;4972702;28;20047;-77
2023/10/30 04:33:18;;;;;;;11.45;1.90;;;;;;;13.24;67.93;98268.81;4973735;28;20146;-77
2023/10/30 04:35:45;;;;;;;8.02;1.67;;;;;;;13.23;67.83;98261.88;4972290;28;20431;-78
2023/10/30 04:38:12;;;;;;;10.68;1.73;;;;;;;13.23;67.90;98267.97;4973484;28;20130;-73
2023/10/30 04:40:39;;;;;;;10.48;1.77;;;;;;;13.22;67.96;98261.03;4973335;28;20057;-76
2023/10/30 04:43:05;;;;;;;10.35;2.10;;;;;;;13.22;68.15;98265.47;4973686;28;20049;-76
2023/10/30 04:45:32;;;;;;;6.90;1.77;;;;;;;13.20;68.29;98270.88;4973333;28;20039;-77
2023/10/30 04:47:59;;;;;;;8.45;1.95;;;;;;;13.20;68.30;98270.06;4973463;28;20050;-77
2023/10/30 04:50:25;;;;;;;8.73;1.58;;;;;;;13.19;68.35;98261.28;4971969;28;20051;-74
2023/10/30 04:52:52;;;;;;;8.85;1.63;;;;;;;13.19;68.34;98266.59;4973013;28;20062;-78
2023/10/30 04:55:18;;;;;;;16.38;1.92;;;;;;;13.19;68.38;98265.75;4972075;28;20046;-75
2023/10/30 04:57:45;;;;;;;11.82;2.10;;;;;;;13.18;68.71;98266.72;4973285;28;20058;-78
2023/10/30 05:00:12;;;;;;;7.32;1.50;;;;;;;13.17;68.54;98268.53;4973128;28;20487;-82
2023/10/30 05:02:39;;;;;;;11.05;1.85;;;;;;;13.18;68.64;98267.56;4973611;28;20043;-79
2023/10/30 05:05:06;;;;;;;6.25;1.60;;;;;;;13.19;68.60;98269.22;4973150;28;20046;-76
2023/10/30 05:07:32;;;;;;;6.63;1.65;;;;;;;13.18;68.67;98259.63;4973323;28;20109;-76
2023/10/30 05:09:59;;;;;;;8.40;2.00;;;;;;;13.18;68.44;98254.34;4972810;28;20133;-75
2023/10/30 05:12:25;;;;;;;8.65;2.22;;;;;;;13.20;68.55;98254.22;4973173;28;20082;-74
2023/10/30 05:14:52;;;;;;;9.77;1.60;;;;;;;13.20;68.69;98256.84;4973037;28;20062;-77
2023/10/30 05:17:19;;;;;;;10.68;1.85;;;;;;;13.19;68.46;98255.19;4972760;28;20138;-81
2023/10/30 05:19:45;;;;;;;7.10;1.70;;;;;;;13.18;68.48;98256.16;4972660;28;20047;-75
2023/10/30 05:22:12;;;;;;;7.00;1.50;;;;;;;13.17;68.63;98244.75;4972864;28;20097;-77
2023/10/30 05:24:38;;;;;;;7.32;1.60;;;;;;;13.16;68.72;98249.19;4971500;28;20134;-75
2023/10/30 05:27:05;;;;;;;8.55;1.95;;;;;;;13.17;68.64;98247.41;4971539;28;20049;-81
2023/10/30 05:29:31;;;;;;;5.43;1.30;;;;;;;13.17;68.72;98252.69;4972691;28;20054;-76
2023/10/30 05:32:02;;;;;;;8.45;1.48;;;;;;;13.16;68.56;98248.38;4972608;28;20062;-75
2023/10/30 05:34:31;;;;;;;9.95;1.98;;;;;;;13.16;68.80;98254.50;4971356;28;20042;-79
2023/10/30 05:36:58;;;;;;;6.00;1.65;;;;;;;13.16;68.73;98251.03;4972310;28;20389;-74
2023/10/30 05:39:24;;;;;;;7.40;1.60;;;;;;;13.16;68.65;98256.31;4972580;28;20101;-78
2023/10/30 05:41:51;;;;;;;9.05;1.70;;;;;;;13.15;68.76;98255.47;4970991;28;20042;-76
2023/10/30 05:44:18;;;;;;;9.30;1.80;;;;;;;13.15;68.75;98254.63;4972462;28;20571;-76
2023/10/30 05:46:44;;;;;;;8.30;1.92;;;;;;;13.15;68.53;98266.03;4972342;28;20471;-77
2023/10/30 05:49:11;;;;;;;7.40;1.98;;;;;;;13.16;69.00;98270.34;4972268;28;20055;-75
2023/10/30 05:51:37;;;;;;;16.10;2.10;;;;;;;13.14;68.70;98269.66;4972340;28;20054;-75
2023/10/30 05:54:04;;;;;;;6.95;1.77;;;;;;;13.14;68.78;98277.59;4971176;28;20891;-77
2023/10/30 05:56:31;;;;;;;5.03;1.95;;;;;;;13.15;69.12;98273.13;4972387;28;20175;-80
2023/10/30 05:58:57;;;;;;;15.75;2.50;;;;;;;13.15;68.92;98259.91;4972099;28;20078;-79
2023/10/30 06:01:24;;;;;;;8.18;1.98;;;;;;;13.13;68.85;98254.75;4971124;28;20043;-72
2023/10/30 06:03:50;;;;;;;11.68;1.80;;;;;;;13.12;68.88;98263.66;4972309;28;20047;-76
2023/10/30 06:06:17;;;;;;;5.18;1.35;;;;;;;13.13;69.10;98253.94;4972416;28;20046;-74
2023/10/30 06:08:44;;;;;;;6.32;1.88;;;;;;;13.11;68.92;98258.53;4972271;28;20054;-75
2023/10/30 06:11:10;;;;;;;9.77;2.00;;;;;;;13.10;68.94;98254.22;4972352;28;20049;-75
2023/10/30 06:13:37;;;;;;;9.77;2.05;;;;;;;13.09;68.75;98271.88;4971118;28;20046;-76
2023/10/30 06:16:04;;;;;;;12.77;2.25;;;;;;;13.07;68.98;98267.69;4972064;28;20042;-78
2023/10/30 06:18:31;;;;;;;6.97;1.88;;;;;;;13.07;68.96;98273.00;4972036;28;20054;-74
2023/10/30 06:21:00;;;;;;;13.05;2.53;;;;;;;13.03;68.88;98278.56;4972127;28;20054;-75
2023/10/30 06:23:27;;;;;;;9.13;2.22;;;;;;;13.02;68.77;98281.34;4972563;28;20435;-75
2023/10/30 06:25:54;;;;;;;10.50;2.08;;;;;;;13.01;68.88;98285.78;4970954;28;20111;-75
2023/10/30 06:28:20;;;;;;;12.63;2.40;;;;;;;13.00;68.63;98278.00;4970941;28;20082;-77
2023/10/30 06:30:47;;;;;;;9.95;2.10;;;;;;;12.98;68.84;98279.97;4971799;28;20138;-76
2023/10/30 06:33:14;;;;;;;8.98;1.75;;;;;;;12.95;68.87;98275.78;4971936;28;20125;-76
2023/10/30 06:35:40;;;;;;;9.07;1.85;;;;;;;12.95;69.01;98280.22;4972143;28;20506;-76
2023/10/30 06:38:07;;;;;;;5.25;1.30;;;;;;;12.93;68.88;98295.41;4970829;28;20082;-77
2023/10/30 06:40:33;;;;;;;13.70;2.17;;;;;;;12.92;69.05;98296.34;4971922;28;20470;-78
2023/10/30 06:43:00;;;;;;;7.10;1.77;;;;;;;12.91;68.90;98306.09;4971865;28;20082;-75
2023/10/30 06:45:26;;;;;;;8.10;1.70;;;;;;;12.88;69.22;98296.66;4971935;28;20138;-75
2023/10/30 06:47:53;;;;;;;8.45;1.67;;;;;;;12.88;69.15;98295.78;4971834;28;20051;-73
2023/10/30 06:50:19;;;;;;;10.25;1.60;;;;;;;12.87;69.11;98304.69;4972075;28;20459;-76
2023/10/30 06:52:46;;;;;;;7.20;1.90;;;;;;;12.85;69.29;98296.91;4970561;28;20488;-81
2023/10/30 06:55:13;;;;;;;7.35;1.73;;;;;;;12.86;69.20;98300.41;4975578;28;20074;-74
2023/10/30 06:57:39;;;;;;;10.98;1.95;;;;;;;12.85;69.18;98304.00;4974287;28;20138;-77
2023/10/30 07:00:07;;;;;;;10.32;1.70;;;;;;;12.83;69.50;98298.88;4975171;28;20055;-79
2023/10/30 07:02:33;;;;;;;8.57;1.85;;;;;;;12.82;69.30;98297.19;4975289;28;20057;-74
2023/10/30 07:05:00;;;;;;;6.32;1.67;;;;;;;12.82;69.49;98304.28;4975577;28;20055;-76
2023/10/30 07:07:26;;;;;;;5.72;1.42;;;;;;;12.81;69.54;98316.66;4975447;28;20051;-79
2023/10/30 07:09:53;;;;;;;7.30;1.65;;;;;;;12.81;69.49;98316.66;4975152;28;20495;-76
2023/10/30 07:12:20;;;;;;;11.00;1.98;;;;;;;12.81;69.73;98321.06;4975288;28;20042;-76
2023/10/30 07:14:46;;;;;;;7.25;1.40;;;;;;;12.81;69.53;98321.94;4975201;28;20043;-77
2023/10/30 07:17:13;;;;;;;7.40;1.55;;;;;;;12.82;69.61;98318.31;4974044;28;20047;-77
2023/10/30 07:19:40;;;;;;;9.90;2.03;;;;;;;12.82;69.79;98318.31;4975146;28;20452;-77
2023/10/30 07:22:06;;;;;;;9.70;1.60;;;;;;;12.82;69.65;98318.31;4973942;28;20054;-76
2023/10/30 07:24:34;;;;;;;5.57;1.42;;;;;;;12.83;69.76;98322.63;4975043;28;20087;-72
2023/10/30 07:27:00;;;;;;;9.00;1.88;;;;;;;12.83;69.85;98325.28;4975061;28;20047;-78
2023/10/30 07:29:27;;;;;;;8.93;1.90;;;;;;;12.84;69.57;98307.59;4974694;28;20100;-77
2023/10/30 07:31:55;;;;;;;14.57;1.88;;;;;;;12.85;69.67;98309.28;4974927;28;20046;-72
2023/10/30 07:34:22;;;;;;;6.30;2.03;;;;;;;12.85;69.71;98320.69;4975075;28;20133;-78
2023/10/30 07:36:48;;;;;;;7.47;1.75;;;;;;;12.86;69.83;98324.97;4973653;28;20074;-78
2023/10/30 07:39:15;;;;;;;8.95;1.90;;;;;;;12.87;70.06;98331.09;4974729;28;20062;-77
2023/10/30 07:41:42;;;;;;;8.40;1.95;;;;;;;12.88;69.91;98325.69;4974853;28;20058;-79
2023/10/30 07:44:09;;;;;;;6.65;1.85;;;;;;;12.90;70.05;98326.38;4973391;28;20097;-76
2023/10/30 07:46:35;;;;;;;12.07;1.88;;;;;;;12.92;70.25;98322.75;4974605;28;20551;-76
2023/10/30 07:49:06;;;;;;;9.45;2.08;;;;;;;12.92;70.55;98328.03;4974482;28;20046;-78
2023/10/30 07:51:33;;;;;;;6.93;1.70;;;;;;;12.96;70.21;98319.72;4974547;28;20051;-80
2023/10/30 07:54:00;;;;;;;5.60;1.52;;;;;;;12.97;70.45;98323.19;4974474;28;20487;-76
2023/10/30 07:56:27;;;;;;;5.13;1.52;;;;;;;12.99;70.28;98330.00;4974358;28;20055;-73
2023/10/30 07:58:53;;;;;;;10.45;1.70;;;;;;;13.02;70.53;98328.91;4972970;28;20647;-76
2023/10/30 08:01:20;;;;;;;10.15;2.00;;;;;;;13.05;70.38;98330.41;4974309;28;20043;-75
2023/10/30 08:03:47;;;;;;;5.65;1.67;;;;;;;13.07;70.49;98331.94;4974541;28;20046;-74
2023/10/30 08:06:14;;;;;;;8.57;1.60;;;;;;;13.11;70.23;98335.97;4974422;28;20047;-76
2023/10/30 08:08:41;;;;;;;7.78;2.28;;;;;;;13.13;70.39;98331.38;4974335;28;20082;-78
2023/10/30 08:11:09;;;;;;;10.80;2.20;;;;;;;13.16;70.48;98333.75;4974010;28;20050;-75
2023/10/30 08:13:36;;;;;;;8.75;1.90;;;;;;;13.20;70.54;98338.75;4974542;28;20047;-74
2023/10/30 08:16:03;;;;;;;8.48;2.30;;;;;;;13.23;70.35;98341.13;4974050;28;20566;-74
2023/10/30 08:18:30;;;;;;;9.95;1.85;;;;;;;13.26;70.35;98346.13;4974017;28;20518;-77
2023/10/30 08:20:57;;;;;;;6.60;1.73;;;;;;;13.29;70.31;98337.91;4974005;28;20472;-76
2023/10/30 08:23:36;;;;;;;6.85;1.90;;;;;;;13.31;70.39;98338.63;4973009;28;20137;-72
2023/10/30 08:26:05;;;;;;;7.95;2.20;;;;;;;13.36;70.31;98348.75;4973113;28;20460;-73
2023/10/30 08:28:32;;;;;;;7.82;2.10;;;;;;;13.38;70.40;98352.94;4973861;28;20109;-80
2023/10/30 08:30:58;;;;;;;5.75;1.90;;;;;;;13.41;70.24;98347.38;4973720;28;20114;-78
2023/10/30 08:33:25;;;;;;;9.65;1.95;;;;;;;13.47;70.49;98355.72;4973906;28;20093;-78
2023/10/30 08:35:53;;;;;;;6.85;1.90;;;;;;;13.51;70.37;98349.19;4972438;28;20038;-78
2023/10/30 08:38:19;;;;;;;6.72;1.88;;;;;;;13.54;70.42;98347.09;4972746;28;20109;-73
2023/10/30 08:40:46;;;;;;;8.43;1.77;;;;;;;13.58;70.41;98350.31;4973734;28;20077;-76
2023/10/30 08:43:12;;;;;;;9.43;1.88;;;;;;;13.63;70.39;98355.16;4972412;28;20089;-75
2023/10/30 08:45:39;;;;;;;8.60;1.83;;;;;;;13.67;70.49;98359.19;4972480;28;20125;-76
2023/10/30 08:48:06;;;;;;;9.25;1.80;;;;;;;13.72;70.37;98351.66;4973549;28;20480;-77
2023/10/30 08:50:44;;;;;;;6.97;1.80;;;;;;;13.79;70.65;98359.84;4972197;28;20047;-78
2023/10/30 08:53:11;;;;;;;7.85;1.83;;;;;;;13.84;70.60;98362.06;4973460;28;20488;-77
2023/10/30 08:55:40;;;;;;;7.07;1.90;;;;;;;13.89;70.44;98368.59;4973570;28;20047;-77
2023/10/30 08:58:07;;;;;;;12.05;2.63;;;;;;;13.95;70.61;98367.22;4972139;28;20078;-78
2023/10/30 09:00:34;;;;;;;10.30;2.17;;;;;;;13.99;70.36;98368.59;4973140;28;20498;-73
2023/10/30 09:03:01;;;;;;;7.82;1.98;;;;;;;14.05;70.28;98369.78;4973303;28;20043;-76
2023/10/30 09:05:27;;;;;;;10.02;1.88;;;;;;;14.11;70.31;98374.53;4973113;28;20053;-78
2023/10/30 09:07:55;;;;;;;10.38;1.83;;;;;;;14.16;70.09;98380.22;4973067;28;20050;-75
2023/10/30 09:10:26;;;;;;;7.57;1.60;;;;;;;14.23;70.53;98379.63;4973126;28;20047;-77
2023/10/30 09:12:53;;;;;;;5.95;1.95;;;;;;;14.27;70.05;98375.72;4973260;28;20039;-77
2023/10/30 09:15:19;;;;;;;5.15;1.77;;;;;;;14.32;70.15;98369.00;4971910;28;20047;-75
2023/10/30 09:17:46;;;;;;;6.93;1.95;;;;;;;14.38;69.99;98378.19;4972457;28;20067;-73
2023/10/30 09:20:13;;;;;;;6.82;1.77;;;;;;;14.44;69.82;98372.28;4973090;28;20054;-76
2023/10/30 09:22:40;;;;;;;10.07;1.70;;;;;;;14.50;69.82;98370.06;4971916;28;20050;-76
2023/10/30 09:25:07;;;;;;;7.60;2.13;;;;;;;14.55;69.94;98370.44;4973069;28;20089;-73
2023/10/30 09:27:34;;;;;;;8.20;1.88;;;;;;;14.61;70.24;98372.47;4972832;28;20472;-75
2023/10/30 09:30:03;;;;;;;9.23;2.00;;;;;;;14.68;69.97;98380.66;4972644;28;20062;-80
2023/10/30 09:32:29;;;;;;;9.80;1.77;;;;;;;14.74;69.70;98374.78;4971398;28;20062;-78
2023/10/30 09:34:58;;;;;;;9.30;2.10;;;;;;;14.81;69.88;98372.41;4972847;28;20047;-73
2023/10/30 09:37:24;;;;;;;11.10;2.38;;;;;;;14.89;69.69;98376.97;4972743;28;20050;-77
2023/10/30 09:39:51;;;;;;;8.98;2.42;;;;;;;14.93;69.48;98371.22;4971301;28;20051;-73
2023/10/30 09:42:18;;;;;;;9.77;2.88;;;;;;;15.00;69.38;98370.59;4972723;28;20051;-77
2023/10/30 09:44:45;;;;;;;10.48;1.98;;;;;;;15.08;69.43;98370.69;4971300;28;20047;-76
2023/10/30 09:47:12;;;;;;;7.28;1.63;;;;;;;15.17;69.55;98382.22;4972741;28;20043;-74
2023/10/30 09:49:39;;;;;;;9.75;2.08;;;;;;;15.22;69.22;98380.75;4972463;28;20055;-77
2023/10/30 09:52:07;;;;;;;11.73;1.80;;;;;;;15.29;69.06;98367.72;4972645;28;20047;-77
2023/10/30 09:54:34;;;;;;;5.95;1.52;;;;;;;15.35;68.94;98387.50;4971467;28;20054;-77
2023/10/30 09:57:03;;;;;;;11.63;1.92;;;;;;;15.42;68.91;98379.75;4972378;28;20098;-79
2023/10/30 09:59:32;;;;;;;7.35;2.13;;;;;;;15.47;68.36;98386.28;4972051;28;20050;-80
2023/10/30 10:01:59;;;;;;;6.68;1.48;;;;;;;15.56;68.79;98391.66;4972582;28;20039;-73
2023/10/30 10:04:26;;;;;;;11.98;2.45;;;;;;;15.62;68.63;98383.06;4972598;28;20046;-79
2023/10/30 10:06:54;;;;;;;8.40;1.60;;;;;;;15.69;68.48;98389.44;4971418;28;20039;-75
2023/10/30 10:09:23;;;;;;;6.53;1.55;;;;;;;15.77;68.85;98386.84;4970880;28;20058;-77
2023/10/30 10:11:50;;;;;;;8.35;2.25;;;;;;;15.86;68.68;98394.84;4972184;28;20060;-77
2023/10/30 10:14:20;;;;;;;8.40;1.75;;;;;;;15.93;68.21;98400.38;4970933;28;20043;-76
2023/10/30 10:16:46;;;;;;;10.07;2.25;;;;;;;16.02;68.57;98400.31;4972156;28;20131;-77
2023/10/30 10:19:20;;;;;;;8.77;2.03;;;;;;;16.10;67.26;98383.59;4971874;28;20043;-74
2023/10/30 10:21:49;;;;;;;8.93;2.08;;;;;;;16.20;67.77;98383.47;4971067;28;20395;-76
2023/10/30 10:24:27;;;;;;;13.38;2.40;;;;;;;16.24;67.10;98387.50;4972107;28;20137;-77
2023/10/30 10:26:56;;;;;;;9.40;1.50;;;;;;;16.36;67.57;98381.88;4971354;28;20491;-77
2023/10/30 10:29:23;;;;;;;7.20;1.80;;;;;;;16.44;67.43;98373.94;4975843;28;20047;-80
2023/10/30 10:31:50;;;;;;;7.13;1.88;;;;;;;16.49;67.29;98371.63;4976194;28;20057;-74
2023/10/30 10:34:17;;;;;;;6.85;1.63;;;;;;;16.54;66.95;98366.72;4974802;28;20137;-77
2023/10/30 10:36:43;;;;;;;8.95;1.77;;;;;;;16.59;66.62;98368.88;4974674;28;20078;-81
2023/10/30 10:39:12;;;;;;;8.38;2.00;;;;;;;16.63;66.87;98361.44;4975602;28;20042;-77
2023/10/30 10:41:41;;;;;;;12.38;2.70;;;;;;;16.65;65.99;98367.38;4976065;28;20098;-76
2023/10/30 10:44:11;;;;;;;7.47;1.58;;;;;;;16.67;65.79;98363.56;4975813;28;20447;-75
2023/10/30 10:46:38;;;;;;;9.38;2.42;;;;;;;16.74;66.16;98360.28;4974489;28;20102;-78
2023/10/30 10:49:05;;;;;;;5.55;1.38;;;;;;;16.76;66.05;98369.75;4975577;28;20061;-76
2023/10/30 10:51:37;;;;;;;10.10;1.80;;;;;;;16.74;65.04;98363.75;4975630;28;20105;-73
2023/10/30 10:54:17;;;;;;;8.40;1.90;;;;;;;16.77;66.18;98360.78;4975857;28;20089;-77
2023/10/30 10:56:51;;;;;;;8.43;1.90;;;;;;;16.87;66.96;98352.69;4975608;28;20050;-75
2023/10/30 10:59:25;;;;;;;10.07;1.85;;;;;;;17.00;66.94;98351.34;4974178;28;20051;-76
2023/10/30 11:01:55;;;;;;;9.35;2.00;;;;;;;17.14;66.30;98344.59;4975439;28;20042;-74
2023/10/30 11:04:23;;;;;;;7.07;1.50;;;;;;;17.29;66.32;98347.41;4975547;28;20047;-75
2023/10/30 11:06:57;;;;;;;8.88;1.77;;;;;;;17.38;65.48;98340.28;4975366;28;20051;-79
2023/10/30 11:09:31;;;;;;;10.23;1.65;;;;;;;17.47;64.62;98336.63;4975397;28;20047;-73
2023/10/30 11:12:16;;;;;;;5.95;1.83;;;;;;;17.53;64.40;98335.13;4975760;28;20451;-79
2023/10/30 11:14:52;;;;;;;8.00;1.67;;;;;;;17.63;64.77;98325.13;4975591;28;20054;-78
2023/10/30 11:17:18;;;;;;;6.40;1.85;;;;;;;17.72;65.62;98339.25;4975381;28;20051;-76
2023/10/30 11:19:46;;;;;;;7.75;1.85;;;;;;;17.81;65.47;98322.28;4975034;28;20110;-72
2023/10/30 11:22:37;;;;;;;9.82;2.15;;;;;;;17.89;64.74;98318.75;4975231;28;20049;-74
2023/10/30 11:25:26;;;;;;;4.35;1.67;;;;;;;18.12;66.02;98318.03;4975133;28;20152;-83
2023/10/30 11:27:53;;;;;;;7.28;1.75;;;;;;;18.30;65.81;98309.81;4974852;28;20054;-75
2023/10/30 11:30:22;;;;;;;7.88;1.95;;;;;;;18.48;64.52;98293.59;4974743;28;20535;-79
2023/10/30 11:32:49;;;;;;;7.45;2.17;;;;;;;18.69;65.94;98289.44;4974963;28;20094;-77